sensor_id;sensor_type;location;lat;lon;timestamp;P1;durP1;ratioP1;P2;durP2;ratioP2
16177;SDS011;8195;51.220;9.746;2023-02-08T00:07:53;20.83;;;14.18;;
16177;SDS011;8195;51.220;9.746;2023-02-08T00:17:53;18.42;;;12.75;;
16177;SDS011;8195;51.220;9.746;2023-02-08T00:27:54;19.63;;;14.00;;
16177;SDS011;8195;51.220;9.746;2023-02-08T00:37:55;19.38;;;15.30;;
16177;SDS011;8195;51.220;9.746;2023-02-08T00:47:56;19.17;;;11.97;;
16177;SDS011;8195;51.220;9.746;2023-02-08T00:57:57;18.60;;;12.93;;
16177;SDS011;8195;51.220;9.746;2023-02-08T01:07:57;18.05;;;13.25;;
16177;SDS011;8195;51.220;9.746;2023-02-08T01:17:58;18.38;;;12.48;;
16177;SDS011;8195;51.220;9.746;2023-02-08T01:27:58;16.08;;;11.75;;
16177;SDS011;8195;51.220;9.746;2023-02-08T01:37:59;12.25;;;9.32;;
16177;SDS011;8195;51.220;9.746;2023-02-08T01:48:07;11.60;;;8.80;;
16177;SDS011;8195;51.220;9.746;2023-02-08T01:58:11;8.80;;;6.87;;
16177;SDS011;8195;51.220;9.746;2023-02-08T02:08:12;8.73;;;6.87;;
16177;SDS011;8195;51.220;9.746;2023-02-08T02:18:17;7.37;;;6.40;;
16177;SDS011;8195;51.220;9.746;2023-02-08T02:49:23;7.07;;;5.83;;
16177;SDS011;8195;51.220;9.746;2023-02-08T02:59:48;6.50;;;5.53;;
16177;SDS011;8195;51.220;9.746;2023-02-08T03:20:03;8.50;;;6.00;;
16177;SDS011;8195;51.220;9.746;2023-02-08T03:40:42;9.13;;;6.67;;
16177;SDS011;8195;51.220;9.746;2023-02-08T03:50:47;5.63;;;4.37;;
16177;SDS011;8195;51.220;9.746;2023-02-08T04:00:53;4.93;;;3.77;;
16177;SDS011;8195;51.220;9.746;2023-02-08T04:10:59;3.63;;;3.23;;
16177;SDS011;8195;51.220;9.746;2023-02-08T04:20:59;5.43;;;4.13;;
16177;SDS011;8195;51.220;9.746;2023-02-08T04:31:00;5.35;;;3.85;;
16177;SDS011;8195;51.220;9.746;2023-02-08T04:41:00;4.82;;;4.28;;
16177;SDS011;8195;51.220;9.746;2023-02-08T04:51:01;5.60;;;4.33;;
16177;SDS011;8195;51.220;9.746;2023-02-08T05:01:08;7.90;;;4.83;;
16177;SDS011;8195;51.220;9.746;2023-02-08T05:11:08;6.53;;;4.83;;
16177;SDS011;8195;51.220;9.746;2023-02-08T05:21:09;4.77;;;4.10;;
16177;SDS011;8195;51.220;9.746;2023-02-08T05:31:14;5.67;;;4.20;;
16177;SDS011;8195;51.220;9.746;2023-02-08T05:41:22;13.43;;;8.07;;
16177;SDS011;8195;51.220;9.746;2023-02-08T05:51:22;18.08;;;11.45;;
16177;SDS011;8195;51.220;9.746;2023-02-08T06:01:23;16.10;;;10.90;;
16177;SDS011;8195;51.220;9.746;2023-02-08T06:11:23;18.77;;;12.10;;
16177;SDS011;8195;51.220;9.746;2023-02-08T06:21:24;18.52;;;13.60;;
16177;SDS011;8195;51.220;9.746;2023-02-08T06:31:25;20.02;;;14.02;;
16177;SDS011;8195;51.220;9.746;2023-02-08T06:41:25;22.17;;;14.40;;
16177;SDS011;8195;51.220;9.746;2023-02-08T06:51:26;23.48;;;15.57;;
16177;SDS011;8195;51.220;9.746;2023-02-08T07:01:26;19.07;;;14.70;;
16177;SDS011;8195;51.220;9.746;2023-02-08T07:11:27;23.75;;;16.13;;
16177;SDS011;8195;51.220;9.746;2023-02-08T07:21:27;25.77;;;16.92;;
16177;SDS011;8195;51.220;9.746;2023-02-08T07:31:28;17.53;;;13.17;;
16177;SDS011;8195;51.220;9.746;2023-02-08T07:41:29;17.75;;;13.68;;
16177;SDS011;8195;51.220;9.746;2023-02-08T07:51:30;17.00;;;11.80;;
16177;SDS011;8195;51.220;9.746;2023-02-08T08:01:30;16.45;;;11.93;;
16177;SDS011;8195;51.220;9.746;2023-02-08T08:11:31;17.92;;;12.15;;
16177;SDS011;8195;51.220;9.746;2023-02-08T08:21:31;12.43;;;9.85;;
16177;SDS011;8195;51.220;9.746;2023-02-08T08:31:32;10.18;;;7.40;;
16177;SDS011;8195;51.220;9.746;2023-02-08T08:41:33;11.47;;;9.53;;
16177;SDS011;8195;51.220;9.746;2023-02-08T08:51:33;11.45;;;9.70;;
16177;SDS011;8195;51.220;9.746;2023-02-08T09:01:34;12.88;;;11.43;;
16177;SDS011;8195;51.220;9.746;2023-02-08T09:11:35;12.73;;;10.63;;
16177;SDS011;8195;51.220;9.746;2023-02-08T09:21:35;13.65;;;12.25;;
16177;SDS011;8195;51.220;9.746;2023-02-08T09:31:36;13.80;;;12.40;;
16177;SDS011;8195;51.220;9.746;2023-02-08T09:41:50;13.75;;;12.40;;
16177;SDS011;8195;51.220;9.746;2023-02-08T10:02:56;12.07;;;10.30;;
16177;SDS011;8195;51.220;9.746;2023-02-08T10:23:23;8.07;;;6.90;;
16177;SDS011;8195;51.220;9.746;2023-02-08T10:54:53;9.73;;;8.80;;
16177;SDS011;8195;51.220;9.746;2023-02-08T11:15:00;11.27;;;10.17;;
16177;SDS011;8195;51.220;9.746;2023-02-08T11:25:46;11.07;;;10.07;;
16177;SDS011;8195;51.220;9.746;2023-02-08T11:35:55;10.07;;;8.63;;
16177;SDS011;8195;51.220;9.746;2023-02-08T11:45:56;8.60;;;7.70;;
16177;SDS011;8195;51.220;9.746;2023-02-08T11:56:05;9.47;;;7.07;;
16177;SDS011;8195;51.220;9.746;2023-02-08T12:06:30;8.57;;;7.23;;
16177;SDS011;8195;51.220;9.746;2023-02-08T12:47:45;14.63;;;11.30;;
16177;SDS011;8195;51.220;9.746;2023-02-08T12:58:18;14.30;;;11.23;;
16177;SDS011;8195;51.220;9.746;2023-02-08T13:08:29;13.33;;;11.07;;
16177;SDS011;8195;51.220;9.746;2023-02-08T13:18:47;15.47;;;11.20;;
16177;SDS011;8195;51.220;9.746;2023-02-08T13:28:54;12.37;;;9.17;;
16177;SDS011;8195;51.220;9.746;2023-02-08T13:38:57;10.53;;;7.90;;
16177;SDS011;8195;51.220;9.746;2023-02-08T13:49:00;9.00;;;6.90;;
16177;SDS011;8195;51.220;9.746;2023-02-08T13:59:01;8.60;;;6.55;;
16177;SDS011;8195;51.220;9.746;2023-02-08T14:19:03;7.25;;;5.43;;
16177;SDS011;8195;51.220;9.746;2023-02-08T14:29:22;7.67;;;5.60;;
16177;SDS011;8195;51.220;9.746;2023-02-08T14:39:26;8.80;;;5.83;;
16177;SDS011;8195;51.220;9.746;2023-02-08T14:49:33;8.67;;;6.20;;
16177;SDS011;8195;51.220;9.746;2023-02-08T14:59:38;7.43;;;5.93;;
16177;SDS011;8195;51.220;9.746;2023-02-08T15:09:41;6.87;;;6.03;;
16177;SDS011;8195;51.220;9.746;2023-02-08T15:19:42;7.60;;;5.87;;
16177;SDS011;8195;51.220;9.746;2023-02-08T15:29:45;7.40;;;5.93;;
16177;SDS011;8195;51.220;9.746;2023-02-08T15:40:03;7.75;;;6.07;;
16177;SDS011;8195;51.220;9.746;2023-02-08T15:50:05;9.13;;;7.07;;
16177;SDS011;8195;51.220;9.746;2023-02-08T16:20:24;8.57;;;7.23;;
16177;SDS011;8195;51.220;9.746;2023-02-08T16:30:26;9.97;;;7.50;;
16177;SDS011;8195;51.220;9.746;2023-02-08T16:50:42;8.83;;;7.70;;
16177;SDS011;8195;51.220;9.746;2023-02-08T17:00:42;12.77;;;8.48;;
16177;SDS011;8195;51.220;9.746;2023-02-08T17:10:43;14.15;;;10.18;;
16177;SDS011;8195;51.220;9.746;2023-02-08T17:20:45;16.37;;;10.63;;
16177;SDS011;8195;51.220;9.746;2023-02-08T17:30:46;20.30;;;12.77;;
16177;SDS011;8195;51.220;9.746;2023-02-08T17:40:48;15.13;;;11.43;;
16177;SDS011;8195;51.220;9.746;2023-02-08T17:50:49;16.27;;;12.20;;
16177;SDS011;8195;51.220;9.746;2023-02-08T18:00:49;17.10;;;13.15;;
16177;SDS011;8195;51.220;9.746;2023-02-08T18:10:50;16.80;;;13.30;;
16177;SDS011;8195;51.220;9.746;2023-02-08T18:20:51;19.43;;;12.87;;
16177;SDS011;8195;51.220;9.746;2023-02-08T18:30:51;16.92;;;12.40;;
16177;SDS011;8195;51.220;9.746;2023-02-08T18:41:00;17.20;;;12.90;;
16177;SDS011;8195;51.220;9.746;2023-02-08T18:51:00;19.75;;;14.43;;
16177;SDS011;8195;51.220;9.746;2023-02-08T19:01:05;19.33;;;14.67;;
16177;SDS011;8195;51.220;9.746;2023-02-08T19:11:27;24.83;;;16.03;;
16177;SDS011;8195;51.220;9.746;2023-02-08T19:21:30;22.50;;;16.57;;
16177;SDS011;8195;51.220;9.746;2023-02-08T19:31:31;24.50;;;16.17;;
16177;SDS011;8195;51.220;9.746;2023-02-08T19:41:36;20.10;;;16.57;;
16177;SDS011;8195;51.220;9.746;2023-02-08T19:51:37;26.03;;;19.47;;
16177;SDS011;8195;51.220;9.746;2023-02-08T20:01:38;30.70;;;20.90;;
16177;SDS011;8195;51.220;9.746;2023-02-08T20:11:39;31.65;;;20.42;;
16177;SDS011;8195;51.220;9.746;2023-02-08T20:21:40;32.07;;;22.50;;
16177;SDS011;8195;51.220;9.746;2023-02-08T20:31:41;28.20;;;21.13;;
16177;SDS011;8195;51.220;9.746;2023-02-08T20:41:43;35.97;;;22.60;;
16177;SDS011;8195;51.220;9.746;2023-02-08T20:51:44;33.50;;;23.47;;
16177;SDS011;8195;51.220;9.746;2023-02-08T21:01:44;36.42;;;23.60;;
16177;SDS011;8195;51.220;9.746;2023-02-08T21:11:45;35.53;;;24.27;;
16177;SDS011;8195;51.220;9.746;2023-02-08T21:21:49;34.30;;;22.57;;
16177;SDS011;8195;51.220;9.746;2023-02-08T21:31:54;32.00;;;23.30;;
16177;SDS011;8195;51.220;9.746;2023-02-08T21:41:54;32.33;;;23.05;;
16177;SDS011;8195;51.220;9.746;2023-02-08T21:51:55;31.65;;;21.10;;
16177;SDS011;8195;51.220;9.746;2023-02-08T22:01:55;31.20;;;21.00;;
16177;SDS011;8195;51.220;9.746;2023-02-08T22:11:56;24.73;;;17.80;;
16177;SDS011;8195;51.220;9.746;2023-02-08T22:21:56;23.77;;;18.08;;
16177;SDS011;8195;51.220;9.746;2023-02-08T22:31:57;25.60;;;17.20;;
16177;SDS011;8195;51.220;9.746;2023-02-08T22:41:57;23.08;;;16.20;;
16177;SDS011;8195;51.220;9.746;2023-02-08T22:51:58;18.77;;;13.83;;
16177;SDS011;8195;51.220;9.746;2023-02-08T23:01:59;20.57;;;13.43;;
16177;SDS011;8195;51.220;9.746;2023-02-08T23:11:59;18.63;;;14.18;;
16177;SDS011;8195;51.220;9.746;2023-02-08T23:22:00;18.30;;;12.93;;
16177;SDS011;8195;51.220;9.746;2023-02-08T23:32:01;19.70;;;12.73;;
16177;SDS011;8195;51.220;9.746;2023-02-08T23:42:01;18.08;;;11.93;;
16177;SDS011;8195;51.220;9.746;2023-02-08T23:52:02;15.30;;;11.00;;
